createdAt,value
2023-04-25T00:00:12.880Z,3.07
2023-04-25T00:02:39.616Z,3.10
2023-04-25T00:05:06.822Z,2.97
2023-04-25T00:07:33.527Z,3.13
2023-04-25T00:10:00.189Z,1.30
2023-04-25T00:12:29.451Z,2.73
2023-04-25T00:14:57.818Z,3.00
2023-04-25T00:17:25.689Z,2.97
2023-04-25T00:19:52.488Z,2.17
2023-04-25T00:22:19.492Z,1.70
2023-04-25T00:24:46.114Z,3.47
2023-04-25T00:27:12.798Z,1.60
2023-04-25T00:29:39.437Z,2.00
2023-04-25T00:32:06.082Z,4.17
2023-04-25T00:34:32.698Z,1.37
2023-04-25T00:36:59.427Z,3.67
2023-04-25T00:39:26.044Z,3.27
2023-04-25T00:41:55.472Z,4.20
2023-04-25T00:44:23.143Z,1.63
2023-04-25T00:46:51.220Z,3.50
2023-04-25T00:49:17.921Z,4.43
2023-04-25T00:51:45.687Z,3.47
2023-04-25T00:54:13.532Z,4.17
2023-04-25T00:56:41.224Z,4.07
2023-04-25T00:59:08.349Z,1.73
2023-04-25T01:01:35.939Z,4.17
2023-04-25T01:04:03.340Z,5.13
2023-04-25T01:06:31.106Z,3.83
2023-04-25T01:08:58.120Z,2.03
2023-04-25T01:11:24.773Z,2.73
2023-04-25T01:13:52.145Z,4.63
2023-04-25T01:16:19.085Z,4.90
2023-04-25T01:18:47.424Z,4.97
2023-04-25T01:21:14.202Z,4.60
2023-04-25T01:23:42.207Z,3.93
2023-04-25T01:26:11.169Z,4.90
2023-04-25T01:28:38.783Z,3.57
2023-04-25T01:31:06.693Z,4.47
2023-04-25T01:33:33.433Z,3.80
2023-04-25T01:36:00.175Z,6.00
2023-04-25T01:38:26.986Z,3.17
2023-04-25T01:40:55.574Z,2.27
2023-04-25T01:43:22.549Z,5.27
2023-04-25T01:45:50.232Z,3.30
2023-04-25T01:48:17.293Z,4.17
2023-04-25T01:50:45.868Z,5.60
2023-04-25T01:53:13.866Z,5.63
2023-04-25T01:55:41.754Z,4.87
2023-04-25T01:58:13.749Z,5.77
2023-04-25T02:00:59.043Z,5.90
2023-04-25T02:03:33.013Z,5.87
2023-04-25T02:06:00.927Z,5.87
2023-04-25T02:08:28.163Z,5.23
2023-04-25T02:10:55.946Z,5.83
2023-04-25T02:13:24.050Z,2.60
2023-04-25T02:16:12.067Z,4.53
2023-04-25T02:18:40.046Z,5.17
2023-04-25T02:21:07.146Z,4.60
2023-04-25T02:23:33.988Z,6.03
2023-04-25T02:26:00.738Z,5.27
2023-04-25T02:28:27.493Z,4.83
2023-04-25T02:30:54.227Z,3.60
2023-04-25T02:33:21.946Z,6.37
2023-04-25T02:35:48.818Z,5.23
2023-04-25T02:38:15.645Z,5.37
2023-04-25T02:40:42.305Z,6.03
2023-04-25T02:43:09.114Z,6.17
2023-04-25T02:45:36.189Z,6.53
2023-04-25T02:48:04.242Z,5.70
2023-04-25T02:50:32.456Z,5.80
2023-04-25T02:52:59.404Z,5.97
2023-04-25T02:55:31.189Z,3.37
2023-04-25T02:57:59.678Z,5.57
2023-04-25T03:00:44.929Z,5.70
2023-04-25T03:03:12.134Z,3.60
2023-04-25T03:05:38.835Z,2.87
2023-04-25T03:08:05.823Z,6.00
2023-04-25T03:10:36.720Z,4.93
2023-04-25T03:13:06.505Z,4.00
2023-04-25T03:15:33.243Z,4.60
2023-04-25T03:17:59.920Z,4.50
2023-04-25T03:20:26.590Z,5.73
2023-04-25T03:22:53.497Z,4.80
2023-04-25T03:25:20.144Z,5.17
2023-04-25T03:27:46.968Z,5.17
2023-04-25T03:30:13.640Z,4.60
2023-04-25T03:32:42.056Z,4.80
2023-04-25T03:35:08.905Z,4.93
2023-04-25T03:37:35.829Z,4.93
2023-04-25T03:40:03.288Z,5.17
2023-04-25T03:42:49.873Z,3.40
2023-04-25T03:45:16.542Z,4.80
2023-04-25T03:47:43.492Z,5.03
2023-04-25T03:50:11.122Z,4.80
2023-04-25T03:52:37.802Z,5.40
2023-04-25T03:55:05.747Z,5.00
2023-04-25T03:57:32.336Z,5.47
2023-04-25T03:59:59.274Z,5.13
2023-04-25T04:02:29.563Z,3.87
2023-04-25T04:04:57.754Z,4.70
2023-04-25T04:07:24.881Z,5.30
2023-04-25T04:09:54.683Z,5.93
2023-04-25T04:12:27.650Z,4.57
2023-04-25T04:14:54.288Z,4.20
2023-04-25T04:17:21.533Z,4.80
2023-04-25T04:19:49.307Z,5.33
2023-04-25T04:22:18.916Z,4.80
2023-04-25T04:24:47.329Z,4.43
2023-04-25T04:27:23.458Z,4.43
2023-04-25T04:30:13.406Z,5.03
2023-04-25T04:32:53.554Z,4.60
2023-04-25T04:35:21.485Z,4.83
2023-04-25T04:37:48.949Z,5.00
2023-04-25T04:40:17.307Z,4.33
2023-04-25T04:42:50.540Z,4.40
2023-04-25T04:45:35.912Z,4.37
2023-04-25T04:48:20.077Z,5.17
2023-04-25T04:51:05.479Z,4.80
2023-04-25T04:53:51.228Z,5.27
2023-04-25T04:56:47.527Z,4.10
2023-04-25T04:59:39.070Z,4.47
2023-04-25T05:02:21.450Z,4.57
2023-04-25T05:05:01.313Z,4.37
2023-04-25T05:07:47.904Z,4.73
2023-04-25T05:10:28.612Z,4.97
2023-04-25T05:13:05.245Z,4.97
2023-04-25T05:15:42.533Z,5.13
2023-04-25T05:18:27.692Z,2.97
2023-04-25T05:21:06.568Z,4.27
2023-04-25T05:23:48.716Z,4.37
2023-04-25T05:26:50.713Z,3.83
2023-04-25T05:29:27.475Z,4.20
2023-04-25T05:32:01.777Z,5.37
2023-04-25T05:34:29.423Z,4.30
2023-04-25T05:36:59.294Z,4.00
2023-04-25T05:39:26.112Z,4.53
2023-04-25T05:42:07.308Z,4.30
2023-04-25T05:44:51.642Z,3.93
2023-04-25T05:47:53.652Z,5.10
2023-04-25T05:50:27.037Z,2.93
2023-04-25T05:52:56.336Z,4.13
2023-04-25T05:55:31.306Z,3.83
2023-04-25T05:57:59.805Z,4.43
2023-04-25T06:00:26.908Z,4.27
2023-04-25T06:02:53.655Z,5.10
2023-04-25T06:05:21.670Z,4.40
2023-04-25T06:07:48.568Z,4.33
2023-04-25T06:10:15.920Z,5.00
2023-04-25T06:12:43.183Z,4.67
2023-04-25T06:15:24.429Z,4.43
2023-04-25T06:17:53.801Z,4.17
2023-04-25T06:20:23.955Z,4.33
2023-04-25T06:22:52.740Z,4.10
2023-04-25T06:25:21.969Z,3.83
2023-04-25T06:27:48.634Z,4.47
2023-04-25T06:30:16.130Z,1.93
2023-04-25T06:32:42.774Z,3.90
2023-04-25T06:35:09.881Z,4.30
2023-04-25T06:37:37.180Z,4.27
2023-04-25T06:40:04.273Z,4.70
2023-04-25T06:42:31.117Z,4.00
2023-04-25T06:44:59.415Z,4.30
2023-04-25T06:47:28.272Z,4.70
2023-04-25T06:49:54.863Z,6.07
2023-04-25T06:52:21.972Z,2.63
2023-04-25T06:54:49.378Z,4.03
2023-04-25T06:57:24.397Z,3.67
2023-04-25T06:59:51.217Z,3.50
2023-04-25T07:02:18.224Z,4.00
2023-04-25T07:04:47.003Z,4.73
2023-04-25T07:07:13.781Z,3.47
2023-04-25T07:09:47.063Z,3.83
2023-04-25T07:12:13.700Z,3.00
2023-04-25T07:14:40.567Z,2.93
2023-04-25T07:17:08.558Z,3.20
2023-04-25T07:19:35.592Z,3.40
2023-04-25T07:22:03.173Z,3.60
2023-04-25T07:24:31.323Z,4.17
2023-04-25T07:27:03.889Z,3.33
2023-04-25T07:29:38.009Z,3.73
2023-04-25T07:32:05.515Z,3.70
2023-04-25T07:34:32.989Z,3.30
2023-04-25T07:37:00.317Z,3.17
2023-04-25T07:39:32.551Z,4.00
2023-04-25T07:42:01.317Z,3.70
2023-04-25T07:44:31.326Z,4.50
2023-04-25T07:46:58.654Z,3.67
2023-04-25T07:49:25.723Z,3.13
2023-04-25T07:51:52.451Z,3.03
2023-04-25T07:54:20.781Z,3.60
2023-04-25T07:56:53.771Z,3.87
2023-04-25T07:59:27.460Z,3.30
2023-04-25T08:01:55.553Z,3.17
2023-04-25T08:04:22.533Z,2.70
2023-04-25T08:06:57.529Z,2.37
2023-04-25T08:09:27.941Z,3.40
2023-04-25T08:11:56.078Z,3.23
2023-04-25T08:14:27.783Z,3.30
2023-04-25T08:16:54.474Z,2.40
2023-04-25T08:19:21.193Z,3.60
2023-04-25T08:21:48.121Z,2.70
2023-04-25T08:24:19.682Z,2.93
2023-04-25T08:26:46.353Z,3.33
2023-04-25T08:29:16.763Z,2.50
2023-04-25T08:31:44.095Z,2.83
2023-04-25T08:34:12.036Z,2.63
2023-04-25T08:36:43.569Z,2.23
2023-04-25T08:39:24.075Z,2.23
2023-04-25T08:42:12.998Z,3.57
2023-04-25T08:44:40.173Z,2.80
2023-04-25T08:47:07.656Z,2.23
2023-04-25T08:49:46.780Z,2.43
2023-04-25T08:52:14.912Z,2.17
2023-04-25T08:54:47.183Z,2.90
2023-04-25T08:57:15.424Z,3.20
2023-04-25T08:59:46.532Z,2.17
2023-04-25T09:02:18.817Z,2.93
2023-04-25T09:04:49.312Z,3.30
2023-04-25T09:07:19.423Z,3.10
2023-04-25T09:09:46.161Z,3.97
2023-04-25T09:12:14.310Z,2.47
2023-04-25T09:14:42.902Z,3.40
2023-04-25T09:17:19.086Z,2.50
2023-04-25T09:19:54.449Z,2.00
2023-04-25T09:22:26.308Z,2.60
2023-04-25T09:24:53.225Z,2.30
2023-04-25T09:27:27.840Z,2.40
2023-04-25T09:30:03.612Z,2.40
2023-04-25T09:32:46.669Z,2.53
2023-04-25T09:35:25.367Z,2.77
2023-04-25T09:37:52.464Z,3.13
2023-04-25T09:40:46.010Z,2.97
2023-04-25T09:43:24.716Z,3.00
2023-04-25T09:45:55.289Z,2.00
2023-04-25T09:48:25.815Z,2.20
2023-04-25T09:51:12.466Z,2.03
2023-04-25T09:53:44.463Z,1.83
2023-04-25T09:56:36.692Z,1.93
2023-04-25T09:59:05.902Z,2.27
2023-04-25T10:01:34.316Z,2.37
2023-04-25T10:04:12.070Z,3.30
2023-04-25T10:06:50.423Z,2.23
2023-04-25T10:09:21.693Z,2.90
2023-04-25T10:11:51.478Z,2.87
2023-04-25T10:14:19.304Z,3.10
2023-04-25T10:16:46.700Z,3.10
2023-04-25T10:19:14.165Z,2.63
2023-04-25T10:21:49.203Z,2.43
2023-04-25T10:24:16.357Z,2.17
2023-04-25T10:26:43.372Z,2.00
2023-04-25T10:29:10.764Z,2.00
2023-04-25T10:31:47.710Z,2.30
2023-04-25T10:34:14.618Z,2.37
2023-04-25T10:36:41.337Z,2.07
2023-04-25T10:39:09.914Z,2.40
2023-04-25T10:41:48.975Z,2.27
2023-04-25T10:44:16.439Z,2.20
2023-04-25T10:46:45.910Z,2.87
2023-04-25T10:49:51.635Z,2.10
2023-04-25T10:52:29.113Z,3.10
2023-04-25T10:54:57.371Z,2.50
2023-04-25T10:57:48.379Z,2.53
2023-04-25T11:00:16.701Z,2.20
2023-04-25T11:02:49.601Z,2.53
2023-04-25T11:05:28.202Z,3.33
2023-04-25T11:08:07.111Z,2.60
2023-04-25T11:10:37.576Z,2.83
2023-04-25T11:13:05.006Z,3.10
2023-04-25T11:15:31.729Z,2.87
2023-04-25T11:17:58.350Z,2.33
2023-04-25T11:20:29.071Z,2.47
2023-04-25T11:22:58.645Z,2.87
2023-04-25T11:25:26.688Z,2.73
2023-04-25T11:27:55.137Z,2.60
2023-04-25T11:30:22.887Z,1.77
2023-04-25T11:32:49.704Z,2.27
2023-04-25T11:35:17.295Z,2.10
2023-04-25T11:37:45.070Z,2.17
2023-04-25T11:40:13.867Z,1.83
2023-04-25T11:42:45.267Z,2.40
2023-04-25T11:45:12.379Z,3.17
2023-04-25T11:47:39.421Z,1.80
2023-04-25T11:50:08.416Z,2.10
2023-04-25T11:52:48.754Z,2.57
2023-04-25T11:55:16.337Z,2.60
2023-04-25T11:57:45.480Z,1.87
2023-04-25T12:00:19.074Z,1.90
2023-04-25T12:02:48.945Z,2.20
2023-04-25T12:05:31.192Z,2.13
2023-04-25T12:07:59.114Z,2.43
2023-04-25T12:10:26.996Z,2.07
2023-04-25T12:12:54.856Z,1.77
2023-04-25T12:15:26.140Z,1.77
2023-04-25T12:17:55.876Z,2.13
2023-04-25T12:20:26.013Z,1.80
2023-04-25T12:22:53.558Z,1.67
2023-04-25T12:25:39.467Z,1.80
2023-04-25T12:28:14.929Z,1.80
2023-04-25T12:31:02.782Z,1.80
2023-04-25T12:33:31.620Z,2.03
2023-04-25T12:35:59.172Z,2.40
2023-04-25T12:38:31.071Z,2.17
2023-04-25T12:40:58.930Z,1.50
2023-04-25T12:43:26.001Z,2.13
2023-04-25T12:45:54.406Z,1.50
2023-04-25T12:48:21.836Z,2.00
2023-04-25T12:50:50.185Z,1.63
2023-04-25T12:53:18.340Z,1.60
2023-04-25T12:55:46.989Z,2.07
2023-04-25T12:58:14.722Z,2.73
2023-04-25T13:00:41.844Z,1.93
2023-04-25T13:03:10.105Z,1.50
2023-04-25T13:05:37.122Z,1.80
2023-04-25T13:08:04.024Z,1.80
2023-04-25T13:10:30.630Z,1.87
2023-04-25T13:12:57.629Z,1.63
2023-04-25T13:15:24.321Z,1.53
2023-04-25T13:17:50.943Z,1.93
2023-04-25T13:20:19.729Z,1.90
2023-04-25T13:22:46.662Z,1.73
2023-04-25T13:25:13.312Z,2.23
2023-04-25T13:27:41.540Z,1.73
2023-04-25T13:30:08.807Z,1.93
2023-04-25T13:32:39.332Z,1.67
2023-04-25T13:35:10.491Z,1.67
2023-04-25T13:37:37.917Z,2.40
2023-04-25T13:40:07.357Z,2.40
2023-04-25T13:42:34.112Z,2.30
2023-04-25T13:45:00.776Z,2.57
2023-04-25T13:47:28.480Z,1.77
2023-04-25T13:49:55.758Z,2.40
2023-04-25T13:52:22.454Z,2.80
2023-04-25T13:54:49.060Z,1.90
2023-04-25T13:57:16.273Z,2.00
2023-04-25T13:59:43.325Z,2.40
2023-04-25T14:02:10.158Z,1.80
2023-04-25T14:04:36.929Z,1.80
2023-04-25T14:07:05.714Z,1.90
2023-04-25T14:09:33.516Z,1.73
2023-04-25T14:12:00.376Z,2.13
2023-04-25T14:14:27.063Z,2.10
2023-04-25T14:16:55.034Z,2.30
2023-04-25T14:19:22.429Z,1.53
2023-04-25T14:21:49.373Z,1.83
2023-04-25T14:24:16.750Z,1.80
2023-04-25T14:26:44.201Z,2.57
2023-04-25T14:29:12.711Z,2.03
2023-04-25T14:31:41.282Z,2.03
2023-04-25T14:34:08.724Z,3.50
2023-04-25T14:36:37.099Z,2.40
2023-04-25T14:39:05.862Z,3.10
2023-04-25T14:41:32.664Z,2.20
2023-04-25T14:43:59.543Z,2.90
2023-04-25T14:46:26.791Z,2.67
2023-04-25T14:48:54.391Z,2.67
2023-04-25T14:51:21.500Z,2.03
2023-04-25T14:53:48.216Z,2.60
2023-04-25T14:56:14.919Z,1.80
2023-04-25T14:58:41.938Z,1.63
2023-04-25T15:01:09.246Z,2.20
2023-04-25T15:03:38.786Z,2.27
2023-04-25T15:06:07.106Z,2.23
2023-04-25T15:08:34.320Z,1.50
2023-04-25T15:11:01.265Z,2.40
2023-04-25T15:13:28.014Z,2.50
2023-04-25T15:15:55.061Z,1.90
2023-04-25T15:18:26.527Z,3.07
2023-04-25T15:20:53.798Z,1.97
2023-04-25T15:23:22.171Z,2.70
2023-04-25T15:25:50.731Z,1.90
2023-04-25T15:28:17.408Z,1.60
2023-04-25T15:30:45.591Z,2.03
2023-04-25T15:33:12.298Z,1.93
2023-04-25T15:35:38.938Z,2.27
2023-04-25T15:38:06.485Z,2.40
2023-04-25T15:40:33.181Z,2.53
2023-04-25T15:43:00.544Z,2.80
2023-04-25T15:45:27.255Z,2.57
2023-04-25T15:47:56.720Z,2.90
2023-04-25T15:50:24.180Z,3.30
2023-04-25T15:52:51.582Z,2.70
2023-04-25T15:55:20.970Z,2.70
2023-04-25T15:57:51.025Z,3.53
2023-04-25T16:00:19.182Z,4.20
2023-04-25T16:02:48.358Z,5.50
2023-04-25T16:05:16.336Z,4.40
2023-04-25T16:07:44.789Z,3.63
2023-04-25T16:10:12.840Z,3.20
2023-04-25T16:12:42.757Z,3.00
2023-04-25T16:15:09.577Z,3.57
2023-04-25T16:17:36.473Z,3.33
2023-04-25T16:20:09.659Z,3.87
2023-04-25T16:22:37.876Z,2.93
2023-04-25T16:25:05.600Z,3.30
2023-04-25T16:27:34.557Z,3.10
2023-04-25T16:30:02.041Z,3.37
2023-04-25T16:32:28.813Z,3.07
2023-04-25T16:34:56.976Z,3.13
2023-04-25T16:37:25.489Z,3.67
2023-04-25T16:39:52.332Z,3.07
2023-04-25T16:42:18.982Z,3.40
2023-04-25T16:44:45.600Z,2.37
2023-04-25T16:47:14.465Z,3.17
2023-04-25T16:49:44.252Z,2.70
2023-04-25T16:52:11.878Z,3.13
2023-04-25T16:54:38.465Z,3.37
2023-04-25T16:57:05.500Z,3.50
2023-04-25T16:59:32.111Z,2.70
2023-04-25T17:01:59.239Z,3.33
2023-04-25T17:04:26.114Z,2.80
2023-04-25T17:06:52.821Z,2.67
2023-04-25T17:09:19.432Z,2.67
2023-04-25T17:11:46.498Z,2.10
2023-04-25T17:14:13.088Z,2.50
2023-04-25T17:16:39.778Z,2.87
2023-04-25T17:19:07.416Z,15.43
2023-04-25T17:21:34.035Z,3.40
2023-04-25T17:24:00.850Z,2.90
2023-04-25T17:26:27.609Z,2.83
2023-04-25T17:28:54.498Z,1.90
2023-04-25T17:31:22.948Z,2.20
2023-04-25T17:33:50.416Z,1.97
2023-04-25T17:36:17.097Z,1.80
2023-04-25T17:38:43.759Z,1.83
2023-04-25T17:41:10.675Z,2.00
2023-04-25T17:43:37.294Z,1.70
2023-04-25T17:46:03.948Z,1.63
2023-04-25T17:48:31.744Z,2.10
2023-04-25T17:50:58.939Z,2.20
2023-04-25T17:53:25.658Z,3.67
2023-04-25T17:55:52.318Z,3.87
2023-04-25T17:58:18.982Z,2.17
2023-04-25T18:00:46.356Z,2.40
2023-04-25T18:03:13.072Z,2.30
2023-04-25T18:05:39.894Z,2.30
2023-04-25T18:08:06.800Z,2.50
2023-04-25T18:10:34.210Z,2.30
2023-04-25T18:13:01.148Z,2.40
2023-04-25T18:15:28.617Z,2.53
2023-04-25T18:17:56.974Z,2.70
2023-04-25T18:20:23.867Z,3.07
2023-04-25T18:22:51.029Z,2.33
2023-04-25T18:25:18.270Z,2.70
2023-04-25T18:27:45.942Z,3.03
2023-04-25T18:30:13.082Z,2.30
2023-04-25T18:32:39.961Z,2.60
2023-04-25T18:35:07.187Z,4.37
2023-04-25T18:37:33.794Z,5.10
2023-04-25T18:40:06.023Z,2.47
2023-04-25T18:42:33.460Z,2.70
2023-04-25T18:45:00.127Z,2.73
2023-04-25T18:47:26.976Z,2.70
2023-04-25T18:49:53.584Z,2.50
2023-04-25T18:52:20.339Z,2.47
2023-04-25T18:54:47.129Z,2.70
2023-04-25T18:57:14.959Z,2.77
2023-04-25T18:59:44.179Z,2.80
2023-04-25T19:02:11.189Z,3.27
2023-04-25T19:04:38.046Z,3.20
2023-04-25T19:07:05.003Z,2.50
2023-04-25T19:09:31.759Z,2.73
2023-04-25T19:11:58.444Z,3.47
2023-04-25T19:14:26.049Z,2.67
2023-04-25T19:16:52.825Z,2.40
2023-04-25T19:19:19.511Z,2.60
2023-04-25T19:21:46.170Z,2.70
2023-04-25T19:24:12.784Z,2.73
2023-04-25T19:26:39.662Z,2.40
2023-04-25T19:29:12.378Z,3.30
2023-04-25T19:31:40.134Z,3.17
2023-04-25T19:34:08.009Z,3.57
2023-04-25T19:36:38.812Z,3.20
2023-04-25T19:39:07.104Z,3.13
2023-04-25T19:41:36.186Z,3.70
2023-04-25T19:44:08.359Z,2.87
2023-04-25T19:46:36.773Z,2.80
2023-04-25T19:49:07.191Z,2.63
2023-04-25T19:51:35.256Z,3.00
2023-04-25T19:54:01.897Z,2.70
2023-04-25T19:56:29.496Z,2.77
2023-04-25T19:59:00.999Z,2.70
2023-04-25T20:01:27.983Z,2.50
2023-04-25T20:03:54.951Z,3.27
2023-04-25T20:06:22.019Z,2.70
2023-04-25T20:08:53.678Z,2.63
2023-04-25T20:11:21.423Z,2.93
2023-04-25T20:13:48.237Z,2.73
2023-04-25T20:16:19.714Z,2.73
2023-04-25T20:18:50.246Z,2.73
2023-04-25T20:21:17.737Z,2.77
2023-04-25T20:23:45.297Z,3.30
2023-04-25T20:26:12.789Z,2.90
2023-04-25T20:28:39.664Z,2.97
2023-04-25T20:31:06.356Z,2.90
2023-04-25T20:33:35.093Z,2.67
2023-04-25T20:36:01.846Z,3.33
2023-04-25T20:38:28.483Z,3.13
2023-04-25T20:40:56.297Z,2.87
2023-04-25T20:43:25.638Z,3.53
2023-04-25T20:45:53.339Z,3.30
2023-04-25T20:48:20.178Z,3.00
2023-04-25T20:50:47.182Z,3.00
2023-04-25T20:53:17.152Z,2.87
2023-04-25T20:55:47.343Z,3.00
2023-04-25T20:58:14.968Z,2.80
2023-04-25T21:00:41.633Z,2.53
2023-04-25T21:03:08.842Z,2.80
2023-04-25T21:05:36.364Z,3.03
2023-04-25T21:08:02.957Z,2.90
2023-04-25T21:10:30.014Z,2.87
2023-04-25T21:12:57.734Z,2.40
2023-04-25T21:15:24.913Z,2.47
2023-04-25T21:17:52.192Z,2.60
2023-04-25T21:20:20.701Z,2.40
2023-04-25T21:22:50.446Z,2.03
2023-04-25T21:25:25.443Z,2.43
2023-04-25T21:27:53.205Z,2.50
2023-04-25T21:30:23.649Z,2.20
2023-04-25T21:32:53.492Z,2.40
2023-04-25T21:35:21.822Z,2.03
2023-04-25T21:37:48.910Z,1.67
2023-04-25T21:40:15.717Z,2.00
2023-04-25T21:42:46.000Z,4.30
2023-04-25T21:45:12.919Z,2.30
2023-04-25T21:47:39.732Z,2.40
2023-04-25T21:50:07.732Z,2.30
2023-04-25T21:52:36.032Z,2.93
2023-04-25T21:55:02.832Z,2.40
2023-04-25T21:57:31.624Z,2.20
2023-04-25T21:59:59.029Z,2.50
2023-04-25T22:02:27.196Z,2.47
2023-04-25T22:04:53.990Z,2.00
2023-04-25T22:07:20.688Z,2.20
2023-04-25T22:09:55.208Z,1.90
2023-04-25T22:12:23.433Z,1.50
2023-04-25T22:14:50.846Z,1.60
2023-04-25T22:17:17.789Z,1.90
2023-04-25T22:19:44.915Z,2.10
2023-04-25T22:22:11.707Z,1.40
2023-04-25T22:24:38.647Z,2.07
2023-04-25T22:27:05.393Z,1.50
2023-04-25T22:29:32.022Z,1.60
2023-04-25T22:31:58.810Z,1.90
2023-04-25T22:34:25.662Z,1.77
2023-04-25T22:36:52.935Z,1.67
2023-04-25T22:39:19.539Z,1.47
2023-04-25T22:41:47.428Z,1.50
2023-04-25T22:44:14.516Z,2.00
2023-04-25T22:46:41.094Z,1.90
2023-04-25T22:49:07.775Z,1.80
2023-04-25T22:51:34.653Z,2.23
2023-04-25T22:54:01.410Z,1.90
2023-04-25T22:56:30.300Z,2.20
2023-04-25T22:58:57.514Z,1.90
2023-04-25T23:01:24.951Z,2.30
2023-04-25T23:03:51.836Z,1.90
2023-04-25T23:06:18.803Z,2.40
2023-04-25T23:08:45.531Z,2.30
2023-04-25T23:11:12.380Z,2.57
2023-04-25T23:13:39.271Z,2.50
2023-04-25T23:16:08.628Z,2.30
2023-04-25T23:18:36.235Z,2.50
2023-04-25T23:21:03.881Z,2.63
2023-04-25T23:23:30.516Z,2.87
2023-04-25T23:25:57.746Z,2.40
2023-04-25T23:28:24.525Z,2.63
2023-04-25T23:30:51.230Z,2.70
2023-04-25T23:33:18.362Z,2.37
2023-04-25T23:35:44.975Z,3.10
2023-04-25T23:38:11.986Z,2.40
2023-04-25T23:40:38.584Z,2.83
2023-04-25T23:43:05.266Z,2.70
2023-04-25T23:45:31.865Z,2.77
2023-04-25T23:47:58.623Z,2.67
2023-04-25T23:50:25.277Z,2.50
2023-04-25T23:52:51.842Z,3.07
2023-04-25T23:55:18.592Z,2.50
2023-04-25T23:57:45.241Z,2.20
